Time;durP1;ratioP1;P1;durP2;ratioP2;P2;SDS_P1;SDS_P2;PMS_P1;PMS_P2;Temp;Humidity;BMP_temperature;BMP_pressure;BME280_temperature;BME280_humidity;BME280_pressure;Samples;Min_cycle;Max_cycle;Signal;HPM_P1;HPM_P2
2021/01/05 00:00:05;;;;;;;17.47;11.93;;;4.00;99.90;;;;;;5092641;28;20224;-65
2021/01/05 00:02:31;;;;;;;17.70;12.10;;;4.00;99.90;;;;;;5092688;28;20208;-64
2021/01/05 00:04:57;;;;;;;21.13;15.10;;;4.00;99.90;;;;;;5071959;28;20270;-61
2021/01/05 00:07:23;;;;;;;16.83;11.43;;;4.00;99.90;;;;;;5072227;28;20221;-62
2021/01/05 00:09:49;;;;;;;15.10;11.20;;;4.00;99.90;;;;;;5071722;28;20229;-63
2021/01/05 00:12:17;;;;;;;17.00;11.57;;;4.00;99.90;;;;;;5072214;28;20241;-65
2021/01/05 00:14:45;;;;;;;14.33;10.27;;;4.10;99.90;;;;;;5072258;28;20208;-57
2021/01/05 00:17:13;;;;;;;17.00;10.97;;;4.10;99.90;;;;;;5072773;28;20208;-57
2021/01/05 00:19:39;;;;;;;17.47;11.33;;;4.10;99.90;;;;;;5072561;28;20240;-57
2021/01/05 00:22:05;;;;;;;16.50;11.27;;;4.20;99.90;;;;;;5072681;28;20366;-57
2021/01/05 00:24:32;;;;;;;16.63;11.57;;;4.20;99.90;;;;;;5072850;28;20321;-57
2021/01/05 00:26:58;;;;;;;16.90;11.40;;;4.20;99.90;;;;;;5073404;28;20228;-57
2021/01/05 00:29:25;;;;;;;15.47;10.63;;;4.20;99.90;;;;;;5072367;28;20248;-57
2021/01/05 00:32:02;;;;;;;14.53;10.80;;;4.20;99.90;;;;;;5072646;28;20689;-57
2021/01/05 00:34:28;;;;;;;17.37;11.17;;;4.20;99.90;;;;;;5071998;28;20201;-57
2021/01/05 00:36:54;;;;;;;14.97;10.23;;;4.20;99.90;;;;;;5071829;28;20299;-56
2021/01/05 00:39:21;;;;;;;18.60;11.30;;;4.20;99.90;;;;;;5071659;28;20228;-58
2021/01/05 00:41:47;;;;;;;17.60;11.30;;;4.30;99.90;;;;;;5071945;28;20209;-58
2021/01/05 00:44:13;;;;;;;18.83;11.53;;;4.30;99.90;;;;;;5071260;28;20266;-58
2021/01/05 00:46:40;;;;;;;15.77;11.40;;;4.40;99.90;;;;;;5071435;28;20212;-58
2021/01/05 00:49:06;;;;;;;18.00;11.70;;;4.50;99.90;;;;;;5071070;28;20224;-58
2021/01/05 00:51:32;;;;;;;16.17;10.77;;;4.50;99.90;;;;;;5071435;28;20209;-58
2021/01/05 00:53:58;;;;;;;18.80;11.43;;;4.50;99.90;;;;;;5071364;28;20254;-57
2021/01/05 00:56:24;;;;;;;16.40;11.70;;;4.60;99.90;;;;;;5071359;28;20209;-58
2021/01/05 00:58:51;;;;;;;16.47;11.80;;;4.60;99.90;;;;;;5071152;28;20252;-57
2021/01/05 01:01:20;;;;;;;18.40;11.07;;;4.60;99.90;;;;;;5071576;28;20205;-57
2021/01/05 01:03:48;;;;;;;17.63;11.60;;;4.70;99.90;;;;;;5070944;28;20205;-57
2021/01/05 01:06:14;;;;;;;19.10;12.30;;;4.70;99.90;;;;;;5071401;28;20250;-57
2021/01/05 01:08:40;;;;;;;16.83;10.93;;;4.80;99.90;;;;;;5070759;28;20232;-57
2021/01/05 01:11:06;;;;;;;17.97;12.43;;;4.80;99.90;;;;;;5071124;28;20209;-57
2021/01/05 01:13:33;;;;;;;18.47;12.17;;;4.80;99.90;;;;;;5070737;28;20205;-57
2021/01/05 01:15:59;;;;;;;18.43;11.90;;;4.70;99.90;;;;;;5070972;28;20672;-58
2021/01/05 01:18:25;;;;;;;17.47;12.10;;;4.60;99.90;;;;;;5070335;28;20580;-57
2021/01/05 01:20:52;;;;;;;19.10;12.40;;;4.40;99.90;;;;;;5071163;28;20189;-57
2021/01/05 01:23:19;;;;;;;19.50;12.47;;;4.30;99.90;;;;;;5070889;28;20211;-57
2021/01/05 01:25:45;;;;;;;19.13;12.43;;;4.30;99.90;;;;;;5070622;28;20235;-57
2021/01/05 01:28:11;;;;;;;17.83;12.50;;;4.30;99.90;;;;;;5070597;28;20224;-57
2021/01/05 01:30:39;;;;;;;19.53;11.83;;;4.30;99.90;;;;;;5070617;28;20227;-57
2021/01/05 01:33:05;;;;;;;18.47;12.53;;;4.40;99.90;;;;;;5070672;28;20244;-57
2021/01/05 01:35:31;;;;;;;20.53;13.37;;;4.40;99.90;;;;;;5070539;28;20254;-57
2021/01/05 01:37:58;;;;;;;21.57;12.77;;;4.40;99.90;;;;;;5070372;28;20695;-57
2021/01/05 01:40:32;;;;;;;22.37;14.00;;;4.40;99.90;;;;;;5070965;28;20400;-56
2021/01/05 01:42:58;;;;;;;24.23;15.57;;;4.40;99.90;;;;;;5071068;28;20254;-57
2021/01/05 01:45:25;;;;;;;20.03;13.27;;;4.30;99.90;;;;;;5070521;28;20205;-57
2021/01/05 01:47:52;;;;;;;22.13;14.13;;;4.30;99.90;;;;;;5070682;28;20232;-57
2021/01/05 01:50:24;;;;;;;22.13;14.00;;;4.30;99.90;;;;;;5070874;28;20278;-57
2021/01/05 01:53:14;;;;;;;22.43;13.63;;;4.30;99.90;;;;;;5070814;28;20239;-57
2021/01/05 01:55:53;;;;;;;24.10;15.07;;;4.40;99.90;;;;;;5070512;28;20243;-57
2021/01/05 01:58:55;;;;;;;21.40;14.27;;;4.50;99.90;;;;;;5070675;28;20252;-57
2021/01/05 02:01:54;;;;;;;23.77;14.63;;;4.40;99.90;;;;;;5070718;28;20213;-57
2021/01/05 02:04:40;;;;;;;23.57;15.43;;;4.50;99.90;;;;;;5070363;28;20209;-57
2021/01/05 02:07:22;;;;;;;21.40;14.03;;;4.50;99.90;;;;;;5070587;28;20247;-57
2021/01/05 02:10:04;;;;;;;23.50;14.90;;;4.50;99.90;;;;;;5070250;28;20225;-57
2021/01/05 02:12:35;;;;;;;22.30;13.93;;;4.30;99.90;;;;;;5070758;28;20687;-57
2021/01/05 02:15:12;;;;;;;21.63;14.50;;;4.20;99.90;;;;;;5070561;28;20219;-57
2021/01/05 02:17:55;;;;;;;22.80;14.50;;;4.30;99.90;;;;;;5071177;28;20281;-57
2021/01/05 02:20:24;;;;;;;24.53;15.50;;;4.20;99.90;;;;;;5069958;28;20781;-57
2021/01/05 02:22:57;;;;;;;22.27;14.17;;;4.20;99.90;;;;;;5070437;28;20205;-57
2021/01/05 02:25:42;;;;;;;22.57;14.13;;;4.10;99.90;;;;;;5070455;28;20200;-57
2021/01/05 02:28:11;;;;;;;23.47;14.17;;;4.10;99.90;;;;;;5070283;28;20282;-57
2021/01/05 02:30:41;;;;;;;21.53;13.80;;;3.90;99.90;;;;;;5070096;28;20225;-57
2021/01/05 02:33:22;;;;;;;20.47;13.63;;;4.00;99.90;;;;;;5070689;28;20205;-57
2021/01/05 02:36:10;;;;;;;21.77;14.10;;;4.10;99.90;;;;;;5070571;28;20209;-57
2021/01/05 02:39:01;;;;;;;20.90;12.80;;;4.00;99.90;;;;;;5070126;28;20208;-57
2021/01/05 02:41:39;;;;;;;19.13;13.30;;;4.00;99.90;;;;;;5070261;28;20578;-57
2021/01/05 02:44:25;;;;;;;19.93;12.83;;;3.90;99.90;;;;;;5070124;28;20628;-57
2021/01/05 02:46:54;;;;;;;20.47;13.17;;;3.80;99.90;;;;;;5070294;28;20201;-57
2021/01/05 02:49:31;;;;;;;19.57;12.77;;;3.90;99.90;;;;;;5069943;28;20667;-56
2021/01/05 02:52:35;;;;;;;22.23;13.80;;;4.00;99.90;;;;;;5072875;28;20201;-57
2021/01/05 02:55:33;;;;;;;19.93;13.63;;;4.10;99.90;;;;;;5073881;28;20291;-56
2021/01/05 02:58:36;;;;;;;20.80;13.27;;;4.00;99.90;;;;;;5073674;28;20205;-57
2021/01/05 03:01:34;;;;;;;22.40;13.67;;;4.20;99.90;;;;;;5074139;28;20233;-57
2021/01/05 03:04:01;;;;;;;22.90;13.67;;;4.30;99.90;;;;;;5073863;28;20201;-57
2021/01/05 03:06:41;;;;;;;23.93;14.63;;;4.40;99.90;;;;;;5073529;28;20200;-58
2021/01/05 03:09:26;;;;;;;21.60;14.27;;;4.40;99.90;;;;;;5073362;28;20225;-56
2021/01/05 03:12:11;;;;;;;22.67;14.23;;;4.50;99.90;;;;;;5073534;28;20598;-57
2021/01/05 03:14:51;;;;;;;22.83;14.60;;;4.60;99.90;;;;;;5073339;28;20212;-57
2021/01/05 03:17:25;;;;;;;21.17;14.33;;;4.70;99.90;;;;;;5073234;28;20204;-57
2021/01/05 03:20:02;;;;;;;23.70;13.83;;;4.70;99.90;;;;;;5105131;22;20244;-59
2021/01/05 03:22:31;;;;;;;21.17;14.40;;;4.60;99.90;;;;;;5115447;28;20578;-60
2021/01/05 03:24:59;;;;;;;23.10;14.40;;;4.60;99.90;;;;;;5114862;28;20199;-59
2021/01/05 03:27:26;;;;;;;24.10;14.90;;;4.60;99.90;;;;;;5114678;28;20219;-60
2021/01/05 03:29:59;;;;;;;22.07;14.63;;;4.60;99.90;;;;;;5114464;28;20299;-60
2021/01/05 03:32:26;;;;;;;25.17;14.63;;;4.70;99.90;;;;;;5115315;28;20265;-59
2021/01/05 03:34:52;;;;;;;23.63;15.17;;;4.60;99.90;;;;;;5114492;28;20200;-60
2021/01/05 03:37:18;;;;;;;23.10;14.63;;;4.70;99.90;;;;;;5114623;28;20204;-60
2021/01/05 03:39:45;;;;;;;23.57;15.23;;;4.70;99.90;;;;;;5113958;28;20227;-60
2021/01/05 03:42:11;;;;;;;24.73;14.70;;;4.80;99.90;;;;;;5114422;28;20207;-59
2021/01/05 03:44:37;;;;;;;24.83;15.47;;;4.80;99.90;;;;;;5113505;28;20204;-60
2021/01/05 03:47:04;;;;;;;22.77;14.30;;;4.90;99.90;;;;;;5114744;28;20619;-60
2021/01/05 03:49:30;;;;;;;23.37;14.20;;;5.00;99.90;;;;;;5114806;28;20220;-60
2021/01/05 03:51:56;;;;;;;21.60;14.23;;;5.10;99.90;;;;;;5114809;28;20200;-60
2021/01/05 03:54:22;;;;;;;21.57;14.57;;;5.10;99.90;;;;;;5114667;28;20663;-60
2021/01/05 03:56:49;;;;;;;22.30;14.17;;;5.10;99.90;;;;;;5115372;28;20206;-60
2021/01/05 03:59:15;;;;;;;22.83;13.70;;;5.10;99.90;;;;;;5114418;28;20259;-60
2021/01/05 04:01:50;;;;;;;19.40;12.90;;;5.10;99.90;;;;;;5114373;28;20608;-60
2021/01/05 04:04:17;;;;;;;24.27;14.73;;;5.10;99.90;;;;;;5114174;28;20228;-60
2021/01/05 04:06:43;;;;;;;21.70;14.13;;;5.00;99.90;;;;;;5114288;28;20211;-61
2021/01/05 04:09:09;;;;;;;20.20;13.67;;;5.00;99.90;;;;;;5113834;28;20223;-60
2021/01/05 04:11:35;;;;;;;20.80;13.80;;;5.00;99.90;;;;;;5114111;28;20204;-60
2021/01/05 04:14:02;;;;;;;22.00;14.07;;;5.00;99.90;;;;;;5113646;28;20496;-60
2021/01/05 04:16:29;;;;;;;23.77;14.50;;;4.90;99.90;;;;;;5114143;28;20207;-60
2021/01/05 04:18:55;;;;;;;21.57;13.97;;;4.90;99.90;;;;;;5113252;28;20589;-60
2021/01/05 04:21:22;;;;;;;24.77;14.60;;;5.00;99.90;;;;;;5113806;28;20242;-60
2021/01/05 04:23:48;;;;;;;24.23;15.50;;;5.10;99.90;;;;;;5113094;28;20651;-60
2021/01/05 04:26:14;;;;;;;21.47;14.10;;;5.10;99.90;;;;;;5113205;28;20567;-60
2021/01/05 04:28:41;;;;;;;22.73;15.17;;;5.10;99.90;;;;;;5113137;28;20224;-60
2021/01/05 04:31:07;;;;;;;23.73;14.33;;;5.20;99.90;;;;;;5113814;28;20204;-60
2021/01/05 04:33:33;;;;;;;20.60;14.20;;;5.20;99.90;;;;;;5112980;28;20670;-60
2021/01/05 04:35:59;;;;;;;21.57;15.47;;;5.20;99.90;;;;;;5112864;28;20199;-60
2021/01/05 04:38:26;;;;;;;21.60;13.30;;;5.20;99.90;;;;;;5112291;28;20269;-61
2021/01/05 04:40:53;;;;;;;22.20;15.00;;;5.20;99.90;;;;;;5112671;28;20223;-59
2021/01/05 04:43:32;;;;;;;23.37;14.47;;;5.30;99.90;;;;;;5112700;28;20207;-59
2021/01/05 04:46:21;;;;;;;22.57;14.13;;;5.30;99.90;;;;;;5112579;28;20203;-60
2021/01/05 04:48:54;;;;;;;24.67;14.97;;;5.30;99.90;;;;;;5111990;28;20625;-60
2021/01/05 04:51:40;;;;;;;23.23;14.73;;;5.20;99.90;;;;;;5112478;28;20481;-60
2021/01/05 04:54:17;;;;;;;24.60;15.33;;;5.20;99.90;;;;;;5112608;28;20204;-60
2021/01/05 04:56:52;;;;;;;23.77;14.90;;;5.10;99.90;;;;;;5112651;28;20580;-59
2021/01/05 04:59:20;;;;;;;21.43;14.70;;;5.10;99.90;;;;;;5112336;28;20223;-60
2021/01/05 05:01:50;;;;;;;22.33;14.67;;;5.10;99.90;;;;;;5112904;28;20204;-60
2021/01/05 05:04:37;;;;;;;22.60;15.27;;;5.10;99.90;;;;;;5112130;28;20215;-60
2021/01/05 05:07:17;;;;;;;22.40;14.57;;;5.10;99.90;;;;;;5112208;28;20207;-60
2021/01/05 05:09:53;;;;;;;25.23;15.57;;;5.10;99.90;;;;;;5111808;28;20639;-59
2021/01/05 05:12:37;;;;;;;25.37;16.50;;;5.10;99.90;;;;;;5111982;28;20199;-59
2021/01/05 05:15:17;;;;;;;20.70;14.10;;;5.20;99.90;;;;;;5111868;28;20199;-59
2021/01/05 05:18:01;;;;;;;21.63;14.47;;;5.20;99.90;;;;;;5112031;28;20199;-60
2021/01/05 05:20:47;;;;;;;21.83;14.10;;;5.30;99.90;;;;;;5112209;28;20264;-59
2021/01/05 05:23:27;;;;;;;24.13;15.30;;;5.30;99.90;;;;;;5113011;28;20210;-59
2021/01/05 05:26:01;;;;;;;23.97;14.80;;;5.30;99.90;;;;;;5112646;28;20199;-59
2021/01/05 05:28:34;;;;;;;24.37;14.47;;;5.40;99.90;;;;;;5112407;28;20226;-59
2021/01/05 05:31:02;;;;;;;21.67;14.33;;;5.40;99.90;;;;;;5112241;28;20227;-59
2021/01/05 05:33:32;;;;;;;22.53;15.13;;;5.40;99.90;;;;;;5111641;28;20199;-59
2021/01/05 05:36:10;;;;;;;22.00;14.60;;;5.50;99.90;;;;;;5112541;28;20203;-59
2021/01/05 05:39:01;;;;;;;18.90;13.40;;;5.40;99.90;;;;;;5111478;28;20203;-59
2021/01/05 05:41:37;;;;;;;22.97;15.07;;;5.40;99.90;;;;;;5111998;28;20260;-58
2021/01/05 05:44:19;;;;;;;23.30;14.17;;;5.40;99.90;;;;;;5111732;28;20233;-58
2021/01/05 05:46:51;;;;;;;21.93;14.13;;;5.30;99.90;;;;;;5111442;28;20229;-60
2021/01/05 05:49:32;;;;;;;22.20;13.93;;;5.30;99.90;;;;;;5111379;28;20235;-59
2021/01/05 05:52:01;;;;;;;20.63;14.00;;;5.30;99.90;;;;;;5112066;28;20199;-59
2021/01/05 05:54:28;;;;;;;22.13;14.13;;;5.30;99.90;;;;;;5111897;28;20214;-60
2021/01/05 05:57:13;;;;;;;24.03;14.87;;;5.30;99.90;;;;;;5111862;28;20208;-59
2021/01/05 05:59:44;;;;;;;22.77;14.07;;;5.30;99.90;;;;;;5112052;28;20472;-60
2021/01/05 06:02:15;;;;;;;20.60;14.10;;;5.30;99.90;;;;;;5112674;28;20666;-60
2021/01/05 06:04:41;;;;;;;20.03;13.83;;;5.40;99.90;;;;;;5111878;28;20583;-60
2021/01/05 06:07:07;;;;;;;20.27;13.90;;;5.40;99.90;;;;;;5112181;28;20595;-60
2021/01/05 06:09:33;;;;;;;22.87;14.03;;;5.30;99.90;;;;;;5111901;28;20231;-60
2021/01/05 06:12:00;;;;;;;22.03;14.47;;;5.40;99.90;;;;;;5111698;28;20230;-59
2021/01/05 06:14:27;;;;;;;24.73;14.87;;;5.40;99.90;;;;;;5111115;28;20203;-60
2021/01/05 06:16:53;;;;;;;20.27;14.30;;;5.30;99.90;;;;;;5111451;28;20212;-60
2021/01/05 06:19:19;;;;;;;21.53;14.20;;;5.30;99.90;;;;;;5111153;28;20603;-60
2021/01/05 06:21:45;;;;;;;21.10;14.87;;;5.20;99.90;;;;;;5111659;28;20264;-61
2021/01/05 06:24:11;;;;;;;24.80;15.80;;;5.20;99.90;;;;;;5111602;28;20215;-60
2021/01/05 06:26:38;;;;;;;23.60;14.80;;;5.10;99.90;;;;;;5114845;28;20678;-60
2021/01/05 06:29:05;;;;;;;23.73;14.77;;;5.10;99.90;;;;;;5115712;28;20239;-60
2021/01/05 06:31:31;;;;;;;22.17;14.17;;;5.20;99.90;;;;;;5115970;28;20215;-60
2021/01/05 06:33:57;;;;;;;20.00;13.70;;;5.20;99.90;;;;;;5115272;28;20211;-60
2021/01/05 06:36:23;;;;;;;20.37;13.97;;;5.20;99.90;;;;;;5115659;28;20207;-60
2021/01/05 06:38:50;;;;;;;24.40;15.53;;;5.30;99.90;;;;;;5115444;28;20204;-60
2021/01/05 06:41:16;;;;;;;25.77;16.17;;;5.30;99.90;;;;;;5115155;28;20209;-60
2021/01/05 06:43:43;;;;;;;27.13;16.23;;;5.30;99.90;;;;;;5115211;28;20294;-59
2021/01/05 06:46:11;;;;;;;22.27;14.03;;;5.30;99.90;;;;;;5115470;28;20204;-59
2021/01/05 06:48:37;;;;;;;24.17;14.83;;;5.30;99.90;;;;;;5114795;28;20223;-59
2021/01/05 06:51:03;;;;;;;22.23;14.53;;;5.30;99.90;;;;;;5114969;28;20628;-60
2021/01/05 06:53:29;;;;;;;25.63;18.03;;;5.30;99.90;;;;;;5115242;28;20204;-60
2021/01/05 06:55:55;;;;;;;20.70;14.37;;;5.40;99.90;;;;;;5114839;28;20207;-60
2021/01/05 06:58:22;;;;;;;22.77;14.40;;;5.40;99.90;;;;;;5115021;28;20199;-60
2021/01/05 07:00:48;;;;;;;19.37;13.97;;;5.30;99.90;;;;;;5115032;28;20234;-60
2021/01/05 07:03:15;;;;;;;20.13;13.53;;;5.30;99.90;;;;;;5115015;28;20617;-60
2021/01/05 07:05:41;;;;;;;21.60;13.83;;;5.30;99.90;;;;;;5114591;28;20219;-60
2021/01/05 07:08:07;;;;;;;24.63;13.97;;;5.40;99.90;;;;;;5114844;28;20216;-60
2021/01/05 07:10:34;;;;;;;21.53;14.70;;;5.30;99.90;;;;;;5115154;28;20253;-59
2021/01/05 07:13:00;;;;;;;24.63;15.73;;;5.40;99.90;;;;;;5115651;28;20203;-60
2021/01/05 07:15:26;;;;;;;22.50;14.93;;;5.40;99.90;;;;;;5116145;28;20204;-60
2021/01/05 07:17:52;;;;;;;22.57;14.93;;;5.50;99.90;;;;;;5115584;28;20200;-60
2021/01/05 07:20:20;;;;;;;25.23;16.63;;;5.40;99.90;;;;;;5114890;28;20231;-60
2021/01/05 07:22:46;;;;;;;20.40;14.00;;;5.50;99.90;;;;;;5115623;28;20203;-60
2021/01/05 07:25:14;;;;;;;26.57;16.13;;;5.40;99.90;;;;;;5114741;28;20231;-61
2021/01/05 07:27:41;;;;;;;22.50;14.23;;;5.40;99.90;;;;;;5115037;28;20273;-60
2021/01/05 07:30:09;;;;;;;22.03;15.23;;;5.40;99.90;;;;;;5114726;28;20219;-61
2021/01/05 07:32:35;;;;;;;29.53;18.83;;;5.30;99.90;;;;;;5114943;28;20553;-61
2021/01/05 07:35:01;;;;;;;26.53;16.30;;;5.30;99.90;;;;;;5114792;28;20200;-60
2021/01/05 07:37:31;;;;;;;24.17;15.70;;;5.20;99.90;;;;;;5114872;28;20196;-61
2021/01/05 07:39:58;;;;;;;22.93;15.93;;;5.30;99.90;;;;;;5114809;28;20223;-60
2021/01/05 07:42:26;;;;;;;22.37;14.90;;;5.40;99.90;;;;;;5114858;28;20199;-60
2021/01/05 07:44:54;;;;;;;20.27;13.50;;;5.40;99.90;;;;;;5114326;28;20682;-61
2021/01/05 07:47:22;;;;;;;20.53;14.30;;;5.40;99.90;;;;;;5114149;28;20203;-61
2021/01/05 07:49:49;;;;;;;22.17;15.30;;;5.50;99.90;;;;;;5114443;28;20262;-61
2021/01/05 07:52:24;;;;;;;36.03;21.77;;;5.60;99.90;;;;;;5114736;28;20207;-61
2021/01/05 07:54:51;;;;;;;23.87;15.20;;;5.60;99.90;;;;;;5114315;28;20207;-61
2021/01/05 07:57:18;;;;;;;23.47;15.73;;;5.60;99.90;;;;;;5114507;28;20499;-61
2021/01/05 07:59:44;;;;;;;22.23;15.10;;;5.60;99.90;;;;;;5113835;28;20245;-59
2021/01/05 08:02:11;;;;;;;30.80;18.17;;;5.60;99.90;;;;;;5114510;28;20227;-63
2021/01/05 08:04:39;;;;;;;20.47;14.00;;;5.60;99.90;;;;;;5114294;28;20207;-60
2021/01/05 08:07:06;;;;;;;22.30;14.87;;;5.60;99.90;;;;;;5113845;28;20578;-61
2021/01/05 08:09:33;;;;;;;24.20;15.57;;;5.40;99.90;;;;;;5113837;28;20742;-60
2021/01/05 08:12:00;;;;;;;21.93;14.43;;;5.30;99.90;;;;;;5114222;28;20199;-61
2021/01/05 08:14:27;;;;;;;23.37;14.60;;;5.30;99.90;;;;;;5113576;28;20217;-60
2021/01/05 08:16:53;;;;;;;21.60;14.33;;;5.30;99.90;;;;;;5114085;28;20252;-60
2021/01/05 08:19:19;;;;;;;22.13;15.40;;;5.40;99.90;;;;;;5113210;28;20284;-61
2021/01/05 08:21:46;;;;;;;21.70;14.40;;;5.50;99.90;;;;;;5114033;28;20227;-61
2021/01/05 08:24:12;;;;;;;23.40;16.23;;;5.60;99.90;;;;;;5114106;28;20603;-61
2021/01/05 08:26:38;;;;;;;19.17;13.20;;;5.60;99.90;;;;;;5114108;28;20199;-62
2021/01/05 08:29:05;;;;;;;20.03;13.53;;;5.60;99.90;;;;;;5113981;28;20435;-61
2021/01/05 08:31:33;;;;;;;20.40;14.20;;;5.50;99.90;;;;;;5113748;28;20215;-61
2021/01/05 08:33:59;;;;;;;20.60;13.43;;;5.50;99.90;;;;;;5113365;28;20203;-60
2021/01/05 08:36:29;;;;;;;23.23;14.43;;;5.50;99.90;;;;;;5113979;28;20207;-62
2021/01/05 08:38:55;;;;;;;21.93;15.03;;;5.60;99.90;;;;;;5113384;28;20203;-62
2021/01/05 08:41:22;;;;;;;21.30;14.53;;;5.60;99.90;;;;;;5114064;28;20206;-60
2021/01/05 08:43:48;;;;;;;18.00;13.13;;;5.50;99.90;;;;;;5113899;28;20206;-60
2021/01/05 08:46:20;;;;;;;19.47;13.87;;;5.50;99.90;;;;;;5113263;28;20249;-61
2021/01/05 08:48:47;;;;;;;21.55;17.30;;;5.50;99.90;;;;;;5110815;28;20447;-59
2021/01/05 08:51:15;;;;;;;19.93;14.80;;;5.50;99.90;;;;;;5112647;28;20199;-60
2021/01/05 08:53:41;;;;;;;23.13;15.60;;;5.60;99.90;;;;;;5112986;28;20231;-61
2021/01/05 08:56:15;;;;;;;19.83;14.07;;;5.70;99.90;;;;;;5113329;27;20207;-60
2021/01/05 08:58:41;;;;;;;21.40;14.10;;;5.80;99.90;;;;;;5112818;28;20200;-61
2021/01/05 09:01:07;;;;;;;19.27;13.90;;;5.90;99.90;;;;;;5112716;28;20203;-61
2021/01/05 09:03:34;;;;;;;20.90;14.60;;;5.90;99.90;;;;;;5112709;28;20207;-64
2021/01/05 09:06:00;;;;;;;17.97;13.47;;;5.90;99.90;;;;;;5112509;28;20659;-60
2021/01/05 09:08:30;;;;;;;18.23;13.93;;;5.70;99.90;;;;;;5112279;28;20219;-61
2021/01/05 09:10:56;;;;;;;19.03;13.17;;;5.60;99.90;;;;;;5112367;28;20314;-61
2021/01/05 09:13:24;;;;;;;21.50;14.43;;;5.40;99.90;;;;;;5112757;28;20203;-60
2021/01/05 09:15:50;;;;;;;17.90;13.13;;;5.30;99.90;;;;;;5112360;28;20617;-61
2021/01/05 09:18:17;;;;;;;20.40;14.37;;;5.00;99.90;;;;;;5112129;28;20286;-61
2021/01/05 09:20:44;;;;;;;26.77;16.17;;;4.90;99.90;;;;;;5111277;22;20665;-64
2021/01/05 09:23:10;;;;;;;22.93;15.90;;;5.10;99.90;;;;;;5091533;28;20250;-64
2021/01/05 09:25:37;;;;;;;19.07;13.47;;;5.40;99.90;;;;;;5091040;28;20218;-63
2021/01/05 09:28:04;;;;;;;16.83;13.27;;;5.70;99.90;;;;;;5090825;28;20228;-64
2021/01/05 09:30:30;;;;;;;18.07;12.93;;;5.80;99.90;;;;;;5091363;28;20227;-63
2021/01/05 09:32:56;;;;;;;19.43;13.87;;;5.80;99.90;;;;;;5091398;28;20208;-63
2021/01/05 09:35:22;;;;;;;20.30;13.23;;;5.90;99.90;;;;;;5090983;28;20249;-63
2021/01/05 09:37:50;;;;;;;17.27;12.80;;;6.10;99.90;;;;;;5090782;28;20199;-64
2021/01/05 09:40:17;;;;;;;20.07;14.00;;;6.20;99.90;;;;;;5091065;28;20443;-63
2021/01/05 09:42:44;;;;;;;18.00;13.47;;;6.20;99.90;;;;;;5091452;28;20656;-63
2021/01/05 09:45:11;;;;;;;19.17;13.30;;;6.40;99.90;;;;;;5090805;28;20546;-62
2021/01/05 09:47:38;;;;;;;30.00;20.47;;;6.50;99.90;;;;;;5090656;28;20596;-62
2021/01/05 09:50:05;;;;;;;17.10;12.40;;;6.60;99.90;;;;;;5090755;28;20228;-63
2021/01/05 09:52:33;;;;;;;18.73;13.67;;;6.60;99.90;;;;;;5090748;28;20564;-63
2021/01/05 09:55:00;;;;;;;17.30;12.67;;;6.70;99.90;;;;;;5090424;28;20216;-63
2021/01/05 09:57:26;;;;;;;16.37;12.80;;;6.70;99.90;;;;;;5091056;28;20215;-64
2021/01/05 09:59:52;;;;;;;17.20;12.80;;;6.70;99.90;;;;;;5090759;28;20227;-62
2021/01/05 10:02:18;;;;;;;17.33;13.40;;;6.80;99.90;;;;;;5094841;28;20208;-63
2021/01/05 10:04:44;;;;;;;23.63;14.90;;;6.80;99.90;;;;;;5094786;28;20218;-63
2021/01/05 10:07:10;;;;;;;18.57;13.80;;;6.80;99.90;;;;;;5094863;28;20204;-62
2021/01/05 10:09:37;;;;;;;18.27;13.43;;;6.90;99.90;;;;;;5094604;28;20220;-65
2021/01/05 10:12:05;;;;;;;19.83;14.03;;;6.90;99.90;;;;;;5095037;28;20199;-62
2021/01/05 10:14:31;;;;;;;19.47;13.17;;;6.90;99.90;;;;;;5094628;28;20204;-62
2021/01/05 10:16:58;;;;;;;21.43;13.20;;;7.00;99.90;;;;;;5094714;28;20200;-64
2021/01/05 10:19:26;;;;;;;20.80;14.27;;;6.90;99.90;;;;;;5094057;28;20232;-62
2021/01/05 10:21:53;;;;;;;21.77;15.43;;;6.90;99.90;;;;;;5094673;28;20207;-62
2021/01/05 10:24:19;;;;;;;20.43;14.07;;;6.90;99.90;;;;;;5094183;28;20207;-62
2021/01/05 10:26:53;;;;;;;23.17;14.03;;;7.10;99.90;;;;;;5094620;28;20608;-62
2021/01/05 10:29:21;;;;;;;20.17;15.07;;;7.20;99.90;;;;;;5094660;28;20228;-63
2021/01/05 10:31:47;;;;;;;19.17;14.83;;;7.20;99.90;;;;;;5094688;28;20750;-63
2021/01/05 10:34:16;;;;;;;20.00;14.17;;;7.20;99.90;;;;;;5094193;28;20211;-62
2021/01/05 10:36:42;;;;;;;23.33;14.47;;;7.30;99.90;;;;;;5094513;28;20204;-63
2021/01/05 10:39:11;;;;;;;18.53;12.60;;;7.40;99.90;;;;;;5094381;28;20257;-62
2021/01/05 10:41:39;;;;;;;17.77;13.57;;;7.40;99.90;;;;;;5094673;28;20204;-62
2021/01/05 10:44:06;;;;;;;20.27;14.20;;;7.50;99.90;;;;;;5094199;28;20211;-62
2021/01/05 10:46:33;;;;;;;19.17;12.43;;;7.50;99.90;;;;;;5094727;28;20211;-61
2021/01/05 10:48:59;;;;;;;17.50;12.63;;;7.40;99.90;;;;;;5094033;28;20220;-63
2021/01/05 10:51:25;;;;;;;16.77;12.80;;;7.10;99.90;;;;;;5094281;28;20591;-63
2021/01/05 10:53:52;;;;;;;19.48;14.82;;;7.00;99.90;;;;;;5081869;28;20515;-61
2021/01/05 10:56:19;;;;;;;17.03;12.80;;;6.90;99.90;;;;;;5073143;28;20205;-65
2021/01/05 10:58:45;;;;;;;18.30;13.10;;;6.60;99.90;;;;;;5073271;28;20201;-65
2021/01/05 11:01:12;;;;;;;19.40;13.43;;;6.60;99.90;;;;;;5073346;28;20700;-65
2021/01/05 11:03:39;;;;;;;19.37;14.33;;;6.50;99.90;;;;;;5073377;28;20205;-66
2021/01/05 11:06:07;;;;;;;18.07;12.90;;;6.50;99.90;;;;;;5073437;28;20208;-66
2021/01/05 11:08:34;;;;;;;20.23;14.03;;;6.30;99.90;;;;;;5071982;28;20221;-67
2021/01/05 11:11:01;;;;;;;18.57;13.50;;;6.20;99.90;;;;;;5072756;28;20590;-66
2021/01/05 11:13:27;;;;;;;17.13;12.97;;;6.30;99.90;;;;;;5072745;28;20242;-65
2021/01/05 11:15:53;;;;;;;18.83;13.43;;;6.30;99.90;;;;;;5073107;28;20251;-64
2021/01/05 11:18:19;;;;;;;19.67;13.27;;;6.30;99.90;;;;;;5072929;28;20287;-63
2021/01/05 11:20:46;;;;;;;18.33;13.90;;;6.30;99.90;;;;;;5072821;28;20785;-65
2021/01/05 11:23:13;;;;;;;17.60;13.80;;;6.20;99.90;;;;;;5072706;28;20216;-67
2021/01/05 11:25:39;;;;;;;24.27;13.27;;;6.30;99.90;;;;;;5072441;28;20231;-65
2021/01/05 11:28:06;;;;;;;17.70;12.63;;;6.40;99.90;;;;;;5072521;28;20255;-66
2021/01/05 11:30:32;;;;;;;18.87;13.77;;;6.40;99.90;;;;;;5072697;28;20221;-64
2021/01/05 11:32:59;;;;;;;16.97;13.00;;;6.40;99.90;;;;;;5072752;28;20224;-63
2021/01/05 11:35:25;;;;;;;19.77;14.10;;;6.40;99.90;;;;;;5072568;28;20234;-65
2021/01/05 11:37:52;;;;;;;16.17;12.30;;;6.50;99.90;;;;;;5071985;28;20227;-62
2021/01/05 11:40:19;;;;;;;20.50;13.30;;;6.40;99.90;;;;;;5072555;28;20225;-62
2021/01/05 11:42:47;;;;;;;18.50;13.37;;;6.20;99.90;;;;;;5072432;28;20205;-64
2021/01/05 11:45:14;;;;;;;17.20;12.90;;;6.10;99.90;;;;;;5072204;28;20489;-63
2021/01/05 11:47:41;;;;;;;18.73;13.23;;;6.20;99.90;;;;;;5072153;28;20514;-65
2021/01/05 11:50:10;;;;;;;17.47;12.90;;;6.10;99.90;;;;;;5072460;28;20240;-62
2021/01/05 11:52:37;;;;;;;17.83;12.50;;;6.10;99.90;;;;;;5072635;28;20205;-60
2021/01/05 11:55:07;;;;;;;17.63;12.73;;;6.00;99.90;;;;;;5072474;28;20573;-61
2021/01/05 11:57:33;;;;;;;18.00;12.83;;;5.90;99.90;;;;;;5072443;28;20216;-60
2021/01/05 11:59:59;;;;;;;16.60;12.47;;;6.00;99.90;;;;;;5072710;28;20282;-64
2021/01/05 12:02:25;;;;;;;14.90;11.30;;;6.10;99.90;;;;;;5073166;28;20262;-63
2021/01/05 12:04:51;;;;;;;20.13;13.23;;;6.00;99.90;;;;;;5072419;28;20215;-63
2021/01/05 12:07:17;;;;;;;16.40;12.70;;;6.10;99.90;;;;;;5072651;28;20584;-63
2021/01/05 12:09:44;;;;;;;17.00;12.90;;;6.20;99.90;;;;;;5071902;28;20229;-64
2021/01/05 12:12:11;;;;;;;20.30;13.40;;;6.40;99.90;;;;;;5071590;28;20236;-62
2021/01/05 12:14:39;;;;;;;16.73;12.47;;;6.40;99.90;;;;;;5071775;28;20232;-62
2021/01/05 12:17:05;;;;;;;17.93;12.63;;;6.60;99.90;;;;;;5072077;28;20201;-64
2021/01/05 12:19:36;;;;;;;17.20;12.33;;;6.70;99.90;;;;;;5071734;28;20343;-62
2021/01/05 12:22:04;;;;;;;17.73;13.00;;;6.80;99.90;;;;;;5072024;28;20212;-61
2021/01/05 12:24:32;;;;;;;17.93;12.43;;;6.80;99.90;;;;;;5070444;28;20208;-59
2021/01/05 12:26:59;;;;;;;17.17;12.73;;;6.60;99.90;;;;;;5072290;28;20208;-62
2021/01/05 12:29:29;;;;;;;15.17;11.80;;;6.40;99.90;;;;;;5071524;28;20764;-61
2021/01/05 12:31:57;;;;;;;17.67;11.77;;;6.20;99.90;;;;;;5071690;28;20661;-60
2021/01/05 12:34:25;;;;;;;15.07;10.73;;;6.10;99.90;;;;;;5071147;28;20205;-61
2021/01/05 12:36:52;;;;;;;13.63;9.87;;;5.80;99.90;;;;;;5071465;28;20201;-62
2021/01/05 12:39:22;;;;;;;14.53;10.70;;;5.70;99.90;;;;;;5071106;28;20274;-59
2021/01/05 12:41:48;;;;;;;14.67;10.60;;;5.60;99.90;;;;;;5071209;28;20209;-60
2021/01/05 12:44:16;;;;;;;13.63;9.67;;;5.50;99.90;;;;;;5071278;28;20656;-60
2021/01/05 12:46:44;;;;;;;14.53;10.33;;;5.40;99.90;;;;;;5071626;28;20699;-60